Time;durP1;ratioP1;P1;durP2;ratioP2;P2;SDS_P1;SDS_P2;PMS_P1;PMS_P2;Temp;Humidity;BMP_temperature;BMP_pressure;BME280_temperature;BME280_humidity;BME280_pressure;Samples;Min_cycle;Max_cycle;Signal;HPM_P1;HPM_P2
2021/05/04 00:00:07;;;;;;;8.98;7.25;;;10.60;60.60;;;;;;5039764;28;20465;-64
2021/05/04 00:02:32;;;;;;;7.95;6.38;;;10.60;60.70;;;;;;5023367;28;20413;-65
2021/05/04 00:04:58;;;;;;;7.18;6.38;;;10.60;60.60;;;;;;5028098;28;20034;-64
2021/05/04 00:07:23;;;;;;;10.90;6.95;;;10.50;61.00;;;;;;5033368;28;20034;-64
2021/05/04 00:09:49;;;;;;;8.82;6.80;;;10.50;61.00;;;;;;5029502;28;20508;-65
2021/05/04 00:12:15;;;;;;;8.38;6.43;;;10.50;61.20;;;;;;5030070;28;20045;-64
2021/05/04 00:14:40;;;;;;;8.27;7.00;;;10.50;61.20;;;;;;5036170;28;20044;-63
2021/05/04 00:17:06;;;;;;;8.80;6.88;;;10.50;62.20;;;;;;5034445;28;20033;-65
2021/05/04 00:19:32;;;;;;;8.90;6.90;;;10.60;61.40;;;;;;5019399;28;20038;-64
2021/05/04 00:21:58;;;;;;;10.20;7.05;;;10.60;61.30;;;;;;5028236;28;20025;-63
2021/05/04 00:24:23;;;;;;;10.75;7.55;;;10.60;61.00;;;;;;5031704;28;20038;-63
2021/05/04 00:26:49;;;;;;;10.48;8.52;;;10.60;61.30;;;;;;5025218;28;20038;-65
2021/05/04 00:29:14;;;;;;;12.00;8.48;;;10.60;61.10;;;;;;5047449;28;20061;-65
2021/05/04 00:31:40;;;;;;;9.75;8.00;;;10.50;60.70;;;;;;5035941;28;20409;-64
2021/05/04 00:34:06;;;;;;;11.10;7.38;;;10.40;60.90;;;;;;5024757;28;20124;-65
2021/05/04 00:36:31;;;;;;;9.75;7.15;;;10.50;60.90;;;;;;5013630;28;20049;-65
2021/05/04 00:38:57;;;;;;;9.05;6.75;;;10.50;61.00;;;;;;5026888;28;20037;-65
2021/05/04 00:41:23;;;;;;;8.50;7.07;;;10.40;61.00;;;;;;5034645;28;20033;-65
2021/05/04 00:43:49;;;;;;;9.75;6.90;;;10.40;61.20;;;;;;5023984;28;20025;-64
2021/05/04 00:46:15;;;;;;;8.93;7.55;;;10.40;61.80;;;;;;5024865;28;20401;-65
2021/05/04 00:48:41;;;;;;;9.90;7.15;;;10.30;61.60;;;;;;5032582;28;20033;-65
2021/05/04 00:51:07;;;;;;;11.25;8.18;;;10.30;61.70;;;;;;5028722;28;20030;-63
2021/05/04 00:53:34;;;;;;;10.60;7.90;;;10.30;62.20;;;;;;5049121;28;20038;-64
2021/05/04 00:56:00;;;;;;;11.98;7.93;;;10.20;62.20;;;;;;5043263;28;20189;-65
2021/05/04 00:58:26;;;;;;;9.43;7.10;;;10.10;62.60;;;;;;5016966;28;20026;-65
2021/05/04 01:00:53;;;;;;;9.23;7.50;;;10.10;62.80;;;;;;5041618;28;20056;-64
2021/05/04 01:03:18;;;;;;;12.30;7.88;;;10.20;62.60;;;;;;5018800;28;20038;-65
2021/05/04 01:05:44;;;;;;;14.00;8.23;;;10.10;63.10;;;;;;5043939;28;20036;-65
2021/05/04 01:08:10;;;;;;;11.32;7.85;;;10.10;62.90;;;;;;5025650;28;20103;-65
2021/05/04 01:10:35;;;;;;;10.13;7.47;;;10.20;63.00;;;;;;5035463;28;20515;-64
2021/05/04 01:13:02;;;;;;;11.65;8.10;;;10.30;62.90;;;;;;5033397;28;20037;-64
2021/05/04 01:15:29;;;;;;;10.70;7.85;;;10.20;63.00;;;;;;5035165;28;20029;-64
2021/05/04 01:17:55;;;;;;;12.70;8.32;;;10.30;63.00;;;;;;5033172;28;20037;-64
2021/05/04 01:20:22;;;;;;;11.15;7.25;;;10.40;62.80;;;;;;5032847;28;20041;-65
2021/05/04 01:22:47;;;;;;;12.20;7.95;;;10.40;62.90;;;;;;5034063;28;20032;-64
2021/05/04 01:25:14;;;;;;;8.65;7.40;;;10.40;62.90;;;;;;5031823;28;20431;-65
2021/05/04 01:27:40;;;;;;;9.40;7.55;;;10.40;62.50;;;;;;5033110;28;20046;-64
2021/05/04 01:30:06;;;;;;;9.45;6.95;;;10.40;62.00;;;;;;5032747;28;20360;-65
2021/05/04 01:32:32;;;;;;;10.43;7.10;;;10.40;62.10;;;;;;5035340;28;20043;-64
2021/05/04 01:34:57;;;;;;;9.75;7.82;;;10.40;62.00;;;;;;5031746;28;20033;-63
2021/05/04 01:37:23;;;;;;;8.98;7.15;;;10.50;62.80;;;;;;5034755;28;20029;-64
2021/05/04 01:39:50;;;;;;;9.63;7.20;;;10.50;62.10;;;;;;5028392;28;20045;-64
2021/05/04 01:42:18;;;;;;;10.85;7.35;;;10.50;62.10;;;;;;5029685;28;20048;-64
2021/05/04 01:44:45;;;;;;;7.97;7.10;;;10.40;62.20;;;;;;5032542;28;20499;-65
2021/05/04 01:47:12;;;;;;;9.32;7.15;;;10.40;62.50;;;;;;5032571;28;20092;-63
2021/05/04 01:49:38;;;;;;;8.63;7.20;;;10.50;62.20;;;;;;5031812;28;20397;-64
2021/05/04 01:52:05;;;;;;;8.10;6.95;;;10.50;62.40;;;;;;5032396;28;20030;-65
2021/05/04 01:54:31;;;;;;;8.27;7.35;;;10.50;62.40;;;;;;5034442;28;20041;-66
2021/05/04 01:56:58;;;;;;;10.73;7.50;;;10.50;62.50;;;;;;5031487;28;20393;-65
2021/05/04 01:59:25;;;;;;;8.95;7.72;;;10.50;62.10;;;;;;5032398;28;20087;-64
2021/05/04 02:01:51;;;;;;;9.10;7.57;;;10.50;62.40;;;;;;5031092;28;20036;-65
2021/05/04 02:04:17;;;;;;;9.52;7.50;;;10.50;62.20;;;;;;5033209;28;20037;-64
2021/05/04 02:06:43;;;;;;;9.27;7.68;;;10.50;62.00;;;;;;5032427;28;20508;-64
2021/05/04 02:09:10;;;;;;;17.17;11.60;;;10.50;62.30;;;;;;5033383;28;20034;-63
2021/05/04 02:11:37;;;;;;;9.50;7.80;;;10.40;62.30;;;;;;5032412;28;20030;-65
2021/05/04 02:14:04;;;;;;;9.23;7.65;;;10.50;63.00;;;;;;5032252;28;20036;-64
2021/05/04 02:16:29;;;;;;;9.65;8.00;;;10.40;62.50;;;;;;5023407;28;20038;-64
2021/05/04 02:18:55;;;;;;;11.05;8.13;;;10.40;62.60;;;;;;5034365;28;20052;-65
2021/05/04 02:21:21;;;;;;;10.02;7.32;;;10.40;62.20;;;;;;5020957;28;20033;-65
2021/05/04 02:23:48;;;;;;;8.68;7.78;;;10.40;62.60;;;;;;5027852;28;20041;-65
2021/05/04 02:26:16;;;;;;;12.93;10.13;;;10.40;62.80;;;;;;5021689;28;20441;-65
2021/05/04 02:28:42;;;;;;;13.00;8.75;;;10.30;62.90;;;;;;5029421;28;20033;-64
2021/05/04 02:31:08;;;;;;;9.65;8.00;;;10.30;62.80;;;;;;5026241;28;20022;-65
2021/05/04 02:33:38;;;;;;;8.68;7.78;;;10.30;62.60;;;;;;5035265;28;20560;-66
2021/05/04 02:36:05;;;;;;;10.45;8.10;;;10.40;62.60;;;;;;5016176;28;20034;-65
2021/05/04 02:38:32;;;;;;;8.75;7.60;;;10.30;62.60;;;;;;5023206;28;20090;-65
2021/05/04 02:40:58;;;;;;;9.45;7.95;;;10.20;63.00;;;;;;5019643;28;20030;-64
2021/05/04 02:43:24;;;;;;;11.18;8.88;;;10.20;62.80;;;;;;5017400;28;20370;-65
2021/05/04 02:45:50;;;;;;;11.57;8.02;;;10.20;62.70;;;;;;5018112;28;20045;-65
2021/05/04 02:48:16;;;;;;;9.73;8.07;;;10.20;62.80;;;;;;5049328;28;20037;-65
2021/05/04 02:50:42;;;;;;;11.63;7.75;;;10.20;62.80;;;;;;5027956;28;20040;-64
2021/05/04 02:53:07;;;;;;;10.32;8.68;;;10.20;62.70;;;;;;5014868;28;20069;-64
2021/05/04 02:55:33;;;;;;;10.60;8.25;;;10.20;62.60;;;;;;5031793;28;20034;-65
2021/05/04 02:57:58;;;;;;;9.88;7.47;;;10.10;62.70;;;;;;5043664;28;20025;-65
2021/05/04 03:00:24;;;;;;;9.52;7.60;;;10.10;62.90;;;;;;5030514;28;20401;-64
2021/05/04 03:02:50;;;;;;;10.10;7.55;;;10.10;63.10;;;;;;5017634;28;20073;-63
2021/05/04 03:05:15;;;;;;;14.30;7.57;;;10.10;63.10;;;;;;5033191;28;20199;-64
2021/05/04 03:07:42;;;;;;;9.80;7.20;;;10.10;63.10;;;;;;5030922;28;20033;-64
2021/05/04 03:10:08;;;;;;;11.00;7.72;;;10.00;63.10;;;;;;5031657;28;20045;-65
2021/05/04 03:12:34;;;;;;;9.00;7.35;;;10.10;63.10;;;;;;5031379;28;20090;-64
2021/05/04 03:14:59;;;;;;;7.97;7.18;;;10.10;63.70;;;;;;5031624;28;20109;-64
2021/05/04 03:17:25;;;;;;;10.27;7.38;;;10.10;63.20;;;;;;5030805;28;20084;-64
2021/05/04 03:19:50;;;;;;;11.05;8.20;;;10.10;63.60;;;;;;5031267;28;20037;-64
2021/05/04 03:22:16;;;;;;;14.13;11.23;;;10.00;64.00;;;;;;5031780;28;20045;-64
2021/05/04 03:24:42;;;;;;;10.57;8.32;;;10.00;64.30;;;;;;5036594;28;20033;-65
2021/05/04 03:27:08;;;;;;;10.05;8.07;;;10.00;64.60;;;;;;5034954;28;20555;-65
2021/05/04 03:29:34;;;;;;;9.00;7.95;;;9.90;64.50;;;;;;5035417;28;20392;-65
2021/05/04 03:31:59;;;;;;;10.38;8.25;;;9.90;64.60;;;;;;5035137;28;20052;-65
2021/05/04 03:34:25;;;;;;;10.02;7.93;;;9.90;64.70;;;;;;5036229;28;20488;-66
2021/05/04 03:36:50;;;;;;;11.43;6.85;;;9.80;64.70;;;;;;5014387;28;20062;-65
2021/05/04 03:39:16;;;;;;;11.35;7.80;;;9.90;64.70;;;;;;5018024;28;20038;-64
2021/05/04 03:41:42;;;;;;;10.13;8.13;;;9.90;64.70;;;;;;5015927;28;20026;-64
2021/05/04 03:44:07;;;;;;;8.88;7.72;;;9.80;64.90;;;;;;5041544;28;20547;-64
2021/05/04 03:46:33;;;;;;;10.18;7.55;;;9.80;65.00;;;;;;5015339;28;20057;-64
2021/05/04 03:48:59;;;;;;;10.77;7.53;;;9.90;64.90;;;;;;5029406;28;21756;-64
2021/05/04 03:51:24;;;;;;;12.80;7.32;;;9.90;64.60;;;;;;5016449;28;20029;-64
2021/05/04 03:53:50;;;;;;;12.57;9.32;;;9.90;64.80;;;;;;5030424;28;20050;-66
2021/05/04 03:56:15;;;;;;;12.15;9.68;;;9.80;64.80;;;;;;5015090;28;20504;-63
2021/05/04 03:58:41;;;;;;;10.60;8.15;;;9.90;65.10;;;;;;5057649;28;20041;-64
2021/05/04 04:01:06;;;;;;;10.98;7.82;;;9.90;64.90;;;;;;5027064;28;20049;-63
2021/05/04 04:03:32;;;;;;;11.82;8.02;;;9.90;65.10;;;;;;5040396;28;20485;-64
2021/05/04 04:05:58;;;;;;;10.27;8.52;;;9.90;65.10;;;;;;5021122;28;20030;-64
2021/05/04 04:08:23;;;;;;;12.98;8.00;;;9.90;65.00;;;;;;5032664;28;20502;-64
2021/05/04 04:10:49;;;;;;;10.25;7.60;;;9.90;65.10;;;;;;5014810;28;20022;-65
2021/05/04 04:13:14;;;;;;;10.32;8.23;;;10.00;65.30;;;;;;5024506;28;20042;-64
2021/05/04 04:15:40;;;;;;;10.95;8.30;;;10.00;65.40;;;;;;5014827;28;20077;-65
2021/05/04 04:18:06;;;;;;;11.40;8.00;;;10.00;65.60;;;;;;5056229;28;20037;-65
2021/05/04 04:20:32;;;;;;;12.32;7.55;;;10.00;65.80;;;;;;5016777;28;20033;-65
2021/05/04 04:22:58;;;;;;;11.07;8.45;;;10.00;66.60;;;;;;5028630;28;20092;-65
2021/05/04 04:25:23;;;;;;;9.07;7.60;;;10.00;65.60;;;;;;5023428;28;20527;-64
2021/05/04 04:27:49;;;;;;;10.55;8.18;;;9.90;66.00;;;;;;5019435;28;20085;-64
2021/05/04 04:30:16;;;;;;;10.20;7.40;;;10.00;65.30;;;;;;5032656;28;20049;-65
2021/05/04 04:32:43;;;;;;;9.82;8.25;;;10.10;65.20;;;;;;5029456;28;20041;-65
2021/05/04 04:35:09;;;;;;;9.93;7.35;;;10.20;65.00;;;;;;5033967;28;20076;-66
2021/05/04 04:37:35;;;;;;;10.73;8.07;;;10.20;64.90;;;;;;5033833;28;20034;-64
2021/05/04 04:40:01;;;;;;;9.68;7.88;;;10.30;64.50;;;;;;5032495;28;20036;-64
2021/05/04 04:42:26;;;;;;;9.88;7.28;;;10.30;64.40;;;;;;5038035;28;20033;-65
2021/05/04 04:44:52;;;;;;;10.68;7.72;;;10.30;64.30;;;;;;5033411;28;20033;-64
2021/05/04 04:47:18;;;;;;;11.85;7.30;;;10.30;64.10;;;;;;5033028;28;20045;-65
2021/05/04 04:49:43;;;;;;;13.65;7.80;;;10.30;64.30;;;;;;5033514;28;20644;-65
2021/05/04 04:52:09;;;;;;;14.65;7.90;;;10.30;64.10;;;;;;5035333;28;20030;-65
2021/05/04 04:54:34;;;;;;;22.02;8.63;;;10.40;63.90;;;;;;5033368;28;20099;-64
2021/05/04 04:57:00;;;;;;;11.38;7.30;;;10.40;63.70;;;;;;5034925;28;20515;-64
2021/05/04 04:59:26;;;;;;;8.10;6.95;;;10.30;64.10;;;;;;5033943;28;20033;-64
2021/05/04 05:01:52;;;;;;;10.15;7.20;;;10.40;63.90;;;;;;5034394;28;20029;-64
2021/05/04 05:04:17;;;;;;;11.48;7.00;;;10.40;63.80;;;;;;5028975;28;20125;-64
2021/05/04 05:06:43;;;;;;;18.40;7.53;;;10.40;63.70;;;;;;5031642;28;20090;-63
2021/05/04 05:09:08;;;;;;;9.73;7.22;;;10.50;63.90;;;;;;5035877;28;20063;-65
2021/05/04 05:11:38;;;;;;;8.85;7.05;;;10.40;63.90;;;;;;5029526;28;20041;-67
2021/05/04 05:14:06;;;;;;;9.68;7.20;;;10.40;64.20;;;;;;5053095;28;20040;-64
2021/05/04 05:16:31;;;;;;;10.55;7.65;;;10.30;64.30;;;;;;5028013;28;20037;-64
2021/05/04 05:18:57;;;;;;;12.30;7.40;;;10.40;64.30;;;;;;5032754;28;20029;-64
2021/05/04 05:21:24;;;;;;;9.55;7.63;;;10.40;64.40;;;;;;5033541;28;20457;-63
2021/05/04 05:23:49;;;;;;;12.63;6.97;;;10.40;64.10;;;;;;5034407;28;20557;-66
2021/05/04 05:26:16;;;;;;;10.77;6.97;;;10.40;64.20;;;;;;5033573;28;20068;-63
2021/05/04 05:28:42;;;;;;;10.93;7.50;;;10.40;64.40;;;;;;5033049;28;20025;-64
2021/05/04 05:31:08;;;;;;;10.25;7.47;;;10.30;64.50;;;;;;5032790;28;20034;-64
2021/05/04 05:33:34;;;;;;;9.88;7.65;;;10.40;64.40;;;;;;5031531;28;20045;-67
2021/05/04 05:36:00;;;;;;;10.35;7.65;;;10.30;64.40;;;;;;5031478;28;20103;-66
2021/05/04 05:38:26;;;;;;;9.75;6.80;;;10.50;64.10;;;;;;5035001;28;20489;-65
2021/05/04 05:40:51;;;;;;;9.38;7.47;;;10.40;64.00;;;;;;5031673;28;20108;-66
2021/05/04 05:43:20;;;;;;;11.80;7.40;;;10.50;63.90;;;;;;5036428;28;20568;-64
2021/05/04 05:45:46;;;;;;;11.00;6.80;;;10.50;63.80;;;;;;5027769;28;20121;-67
2021/05/04 05:48:11;;;;;;;13.60;6.95;;;10.60;63.60;;;;;;5033726;28;20064;-66
2021/05/04 05:50:37;;;;;;;8.60;7.13;;;10.70;63.50;;;;;;5032718;28;20327;-65
2021/05/04 05:53:03;;;;;;;8.85;7.10;;;10.70;63.80;;;;;;5037476;28;20107;-65
2021/05/04 05:55:28;;;;;;;12.65;7.38;;;10.70;63.80;;;;;;5024635;28;20079;-65
2021/05/04 05:57:54;;;;;;;9.82;7.10;;;10.90;63.60;;;;;;5039218;28;20033;-65
2021/05/04 06:00:20;;;;;;;14.70;7.18;;;10.90;63.60;;;;;;5015439;28;20029;-65
2021/05/04 06:02:46;;;;;;;11.48;8.32;;;10.90;63.80;;;;;;5044635;28;20402;-65
2021/05/04 06:05:13;;;;;;;7.40;6.60;;;10.90;63.90;;;;;;5028154;28;20037;-65
2021/05/04 06:07:39;;;;;;;12.05;7.55;;;10.90;63.60;;;;;;5014733;28;20188;-65
2021/05/04 06:10:05;;;;;;;14.50;8.05;;;10.90;63.80;;;;;;5046107;28;20033;-65
2021/05/04 06:12:31;;;;;;;8.45;7.15;;;11.00;63.80;;;;;;5032846;28;20048;-64
2021/05/04 06:14:56;;;;;;;8.02;7.03;;;11.00;63.80;;;;;;5019828;28;20083;-65
2021/05/04 06:17:22;;;;;;;9.20;6.47;;;11.00;64.00;;;;;;5019229;28;20491;-65
2021/05/04 06:19:48;;;;;;;8.68;7.40;;;11.00;64.20;;;;;;5018923;28;20043;-65
2021/05/04 06:22:13;;;;;;;9.00;7.25;;;10.90;64.60;;;;;;5017432;28;20116;-65
2021/05/04 06:24:39;;;;;;;10.07;7.18;;;10.90;64.60;;;;;;5017373;28;20037;-64
2021/05/04 06:27:05;;;;;;;9.85;7.55;;;10.90;64.90;;;;;;5039448;28;20095;-64
2021/05/04 06:29:31;;;;;;;8.95;7.45;;;11.00;65.20;;;;;;5022066;28;20139;-65
2021/05/04 06:32:04;;;;;;;11.23;7.22;;;11.00;65.60;;;;;;5032510;28;20044;-65
2021/05/04 06:34:29;;;;;;;10.63;7.53;;;10.90;65.80;;;;;;5031275;28;20041;-65
2021/05/04 06:36:55;;;;;;;11.10;8.57;;;10.90;66.40;;;;;;5012900;28;20395;-65
2021/05/04 06:39:21;;;;;;;10.35;7.30;;;11.00;66.70;;;;;;5030510;28;20087;-64
2021/05/04 06:41:46;;;;;;;9.50;7.68;;;11.00;66.90;;;;;;5012595;28;20037;-63
2021/05/04 06:44:14;;;;;;;8.65;7.03;;;11.00;67.60;;;;;;5021983;28;20043;-65
2021/05/04 06:46:39;;;;;;;8.65;6.50;;;11.00;67.20;;;;;;5012334;28;20176;-65
2021/05/04 06:49:05;;;;;;;10.10;5.72;;;11.10;65.90;;;;;;5058193;28;20067;-64
2021/05/04 06:51:30;;;;;;;7.53;5.85;;;11.30;63.60;;;;;;5026109;28;20041;-65
2021/05/04 06:53:56;;;;;;;7.05;5.40;;;11.40;63.90;;;;;;5047653;28;20107;-64
2021/05/04 06:56:21;;;;;;;8.38;5.63;;;11.40;63.50;;;;;;5014479;28;20046;-64
2021/05/04 06:58:48;;;;;;;7.43;5.63;;;11.50;63.60;;;;;;5043030;28;20108;-63
2021/05/04 07:01:15;;;;;;;10.90;6.40;;;11.50;63.30;;;;;;5024632;28;20030;-65
2021/05/04 07:03:41;;;;;;;8.43;5.95;;;11.50;63.70;;;;;;5012270;28;20544;-66
2021/05/04 07:06:06;;;;;;;8.18;5.22;;;11.50;64.10;;;;;;5016717;28;20057;-65
2021/05/04 07:08:32;;;;;;;7.57;5.50;;;11.50;63.90;;;;;;5026100;28;20038;-64
2021/05/04 07:10:57;;;;;;;7.03;5.38;;;11.60;63.90;;;;;;5024166;28;20108;-64
2021/05/04 07:13:23;;;;;;;9.20;4.75;;;11.70;63.10;;;;;;5034639;28;20026;-65
2021/05/04 07:15:49;;;;;;;12.38;5.22;;;11.80;62.90;;;;;;5031450;28;20044;-64
2021/05/04 07:18:15;;;;;;;6.35;5.07;;;11.90;62.10;;;;;;5021887;28;20045;-64
2021/05/04 07:20:41;;;;;;;7.03;4.82;;;12.00;62.30;;;;;;5014712;28;20028;-65
2021/05/04 07:23:10;;;;;;;8.07;4.90;;;11.90;62.40;;;;;;5024321;28;20034;-66
2021/05/04 07:25:37;;;;;;;6.45;4.60;;;12.00;61.80;;;;;;5021432;28;20063;-65
2021/05/04 07:28:03;;;;;;;8.20;4.47;;;12.10;61.70;;;;;;5033707;28;20036;-65
2021/05/04 07:30:31;;;;;;;17.15;4.90;;;12.10;62.30;;;;;;5049269;28;20034;-65
2021/05/04 07:32:57;;;;;;;6.18;4.50;;;12.10;61.70;;;;;;5021105;28;20030;-64
2021/05/04 07:35:23;;;;;;;10.82;4.85;;;12.20;61.60;;;;;;5017483;28;20038;-65
2021/05/04 07:37:48;;;;;;;9.90;4.85;;;12.20;61.30;;;;;;5012726;28;20026;-64
2021/05/04 07:40:14;;;;;;;7.07;4.10;;;12.30;60.40;;;;;;5017878;28;20034;-65
2021/05/04 07:42:40;;;;;;;9.32;4.22;;;12.30;60.80;;;;;;5011813;28;20038;-64
2021/05/04 07:45:06;;;;;;;6.22;3.80;;;12.30;59.90;;;;;;5016537;28;20030;-65
2021/05/04 07:47:32;;;;;;;8.10;3.50;;;12.30;60.00;;;;;;5011369;28;20386;-64
2021/05/04 07:49:58;;;;;;;6.75;3.60;;;12.30;60.30;;;;;;5017185;28;20033;-65
2021/05/04 07:52:23;;;;;;;13.05;3.80;;;12.30;60.20;;;;;;5011478;28;20030;-65
2021/05/04 07:54:51;;;;;;;10.35;3.70;;;12.10;60.70;;;;;;5016386;28;20057;-65
2021/05/04 07:57:19;;;;;;;4.80;3.28;;;12.10;61.40;;;;;;5012839;28;20025;-63
2021/05/04 07:59:45;;;;;;;6.20;3.70;;;12.10;61.60;;;;;;5019030;28;20048;-64
2021/05/04 08:02:10;;;;;;;10.93;3.20;;;12.10;61.60;;;;;;5031501;28;20113;-64
2021/05/04 08:04:36;;;;;;;5.85;2.90;;;12.00;62.00;;;;;;5024615;28;20461;-65
2021/05/04 08:07:06;;;;;;;8.85;3.45;;;12.00;62.60;;;;;;5018933;28;20087;-66
2021/05/04 08:09:32;;;;;;;10.38;4.47;;;11.90;62.30;;;;;;5032111;28;20026;-63
2021/05/04 08:11:57;;;;;;;5.35;3.30;;;11.90;63.00;;;;;;5019706;28;20034;-64
2021/05/04 08:14:24;;;;;;;6.03;3.17;;;11.90;62.80;;;;;;5034678;28;20067;-65
2021/05/04 08:16:51;;;;;;;4.80;3.13;;;11.90;63.40;;;;;;5021413;28;20030;-65
2021/05/04 08:19:17;;;;;;;8.13;3.70;;;11.80;63.30;;;;;;5026084;28;20029;-67
2021/05/04 08:21:43;;;;;;;7.07;3.50;;;11.90;63.60;;;;;;5035235;28;20041;-66
2021/05/04 08:24:11;;;;;;;4.57;3.05;;;11.80;63.90;;;;;;5019994;28;20410;-64
2021/05/04 08:26:37;;;;;;;7.18;3.63;;;11.80;64.20;;;;;;5046440;28;20453;-65
2021/05/04 08:29:03;;;;;;;6.82;3.60;;;11.80;64.60;;;;;;5018484;28;20642;-65
2021/05/04 08:31:29;;;;;;;8.05;3.80;;;11.80;64.80;;;;;;5034125;28;20087;-65
2021/05/04 08:33:54;;;;;;;5.07;3.17;;;11.80;65.00;;;;;;5021162;28;20030;-66
2021/05/04 08:36:20;;;;;;;9.25;4.43;;;11.80;65.20;;;;;;5035334;28;20536;-64
2021/05/04 08:38:46;;;;;;;6.63;3.10;;;11.80;65.20;;;;;;5014884;28;20797;-65
2021/05/04 08:41:14;;;;;;;13.57;3.85;;;11.80;65.70;;;;;;5015187;28;20521;-65
2021/05/04 08:43:42;;;;;;;7.18;3.22;;;11.80;65.90;;;;;;5023410;28;20063;-64
2021/05/04 08:46:08;;;;;;;7.07;3.55;;;11.80;65.40;;;;;;5040918;28;20025;-63
2021/05/04 08:48:34;;;;;;;5.07;3.28;;;11.80;65.90;;;;;;5047555;28;20049;-66
2021/05/04 08:51:00;;;;;;;10.27;4.50;;;11.80;65.50;;;;;;5046286;28;20164;-64
2021/05/04 08:53:26;;;;;;;5.03;3.60;;;11.90;65.90;;;;;;5022576;28;20042;-64
2021/05/04 08:55:51;;;;;;;4.38;3.47;;;11.90;65.90;;;;;;5015816;28;20030;-64
2021/05/04 08:58:17;;;;;;;6.45;3.40;;;11.90;65.30;;;;;;5020840;28;20113;-64
2021/05/04 09:00:42;;;;;;;10.00;3.53;;;11.90;65.90;;;;;;5033280;28;20036;-67
2021/05/04 09:03:32;;;;;;;5.50;3.42;;;12.00;65.70;;;;;;5031248;28;20368;-64
2021/05/04 09:19:55;;;;;;;4.82;3.75;;;12.30;66.30;;;;;;5020278;28;20042;-65
2021/05/04 09:22:38;;;;;;;5.60;3.10;;;12.30;66.50;;;;;;5031678;28;20070;-64
2021/05/04 09:25:07;;;;;;;4.65;3.38;;;12.40;65.10;;;;;;5049481;28;20056;-65
2021/05/04 09:27:32;;;;;;;5.03;3.00;;;12.40;65.50;;;;;;5016603;28;20038;-65
2021/05/04 09:29:59;;;;;;;9.50;3.42;;;12.50;65.90;;;;;;5049117;28;20389;-64
2021/05/04 09:32:32;;;;;;;5.00;3.33;;;12.60;65.70;;;;;;5031309;28;20077;-65
2021/05/04 09:35:08;;;;;;;6.40;3.08;;;12.60;65.30;;;;;;5054527;28;20053;-63
2021/05/04 09:37:40;;;;;;;5.50;3.38;;;12.50;65.20;;;;;;5022405;28;20041;-64
2021/05/04 09:40:26;;;;;;;5.50;3.20;;;12.60;64.60;;;;;;5020764;28;20037;-64
2021/05/04 09:42:59;;;;;;;6.47;3.70;;;12.60;64.90;;;;;;5014034;28;20095;-65
2021/05/04 09:45:28;;;;;;;5.65;2.95;;;12.70;64.50;;;;;;5019275;28;20127;-65
2021/05/04 09:48:30;;;;;;;5.93;3.65;;;12.80;65.60;;;;;;5023888;28;20474;-65
2021/05/04 09:51:03;;;;;;;6.75;3.75;;;13.10;65.10;;;;;;5016624;28;20034;-64
2021/05/04 09:53:44;;;;;;;4.35;2.80;;;13.00;64.40;;;;;;5015863;28;20030;-65
2021/05/04 09:56:12;;;;;;;6.55;3.00;;;13.10;64.30;;;;;;5035672;28;20030;-65
2021/05/04 09:58:43;;;;;;;8.25;3.28;;;13.20;64.30;;;;;;5012410;28;20109;-64
2021/05/04 10:01:11;;;;;;;6.90;3.17;;;13.30;63.70;;;;;;5039648;28;20550;-66
2021/05/04 10:03:39;;;;;;;3.65;3.10;;;13.40;63.40;;;;;;5013965;28;20041;-64
2021/05/04 10:06:07;;;;;;;4.50;3.00;;;13.40;63.40;;;;;;5033114;28;20037;-65
2021/05/04 10:08:33;;;;;;;6.07;2.90;;;13.40;63.10;;;;;;5030812;28;20030;-65
2021/05/04 10:11:04;;;;;;;6.15;2.92;;;13.40;62.70;;;;;;5024637;28;20077;-65
2021/05/04 10:13:32;;;;;;;11.38;3.20;;;13.30;63.40;;;;;;5026910;28;20026;-65
2021/05/04 10:15:58;;;;;;;4.43;3.20;;;13.20;62.90;;;;;;5032654;28;20033;-64
2021/05/04 10:18:25;;;;;;;9.05;3.13;;;13.10;63.20;;;;;;5025135;28;20088;-65
2021/05/04 10:20:56;;;;;;;5.90;3.00;;;13.10;63.20;;;;;;5027422;28;20036;-64
2021/05/04 10:23:23;;;;;;;6.43;3.22;;;13.10;63.10;;;;;;5031376;28;20071;-65
2021/05/04 10:26:01;;;;;;;4.13;2.95;;;13.20;63.30;;;;;;5030117;28;20034;-65
2021/05/04 10:28:33;;;;;;;5.47;3.15;;;13.10;63.80;;;;;;5024973;28;20037;-65
2021/05/04 10:31:01;;;;;;;6.30;3.05;;;13.10;64.20;;;;;;5040639;28;20117;-65
2021/05/04 10:33:29;;;;;;;8.10;3.30;;;13.10;63.50;;;;;;5021662;28;20030;-64
2021/05/04 10:35:55;;;;;;;7.13;3.35;;;13.20;64.00;;;;;;5029641;28;20041;-64
2021/05/04 10:38:21;;;;;;;5.95;3.00;;;13.20;64.50;;;;;;5033054;28;20026;-64
2021/05/04 10:41:00;;;;;;;8.80;3.38;;;13.20;64.70;;;;;;5045439;28;20033;-64
2021/05/04 10:43:26;;;;;;;3.78;2.88;;;13.20;65.00;;;;;;5021801;28;20462;-64
2021/05/04 10:45:53;;;;;;;4.22;3.15;;;13.20;64.60;;;;;;5044881;28;20044;-64
2021/05/04 10:48:48;;;;;;;6.85;4.00;;;13.10;65.00;;;;;;5027516;28;20026;-64
2021/05/04 10:51:15;;;;;;;;;;;13.20;64.70;;;;;;5026396;28;20044;-64
2021/05/04 10:53:53;;;;;;;4.50;2.80;;;13.10;64.90;;;;;;5016869;28;19945;-65
2021/05/04 10:56:42;;;;;;;3.83;3.00;;;13.10;65.10;;;;;;5018738;28;20389;-64
2021/05/04 10:59:13;;;;;;;7.50;3.00;;;13.20;65.60;;;;;;5038664;28;20036;-66
2021/05/04 11:01:39;;;;;;;4.10;2.85;;;13.20;66.10;;;;;;5023834;28;20497;-64
2021/05/04 11:04:06;;;;;;;3.40;2.80;;;13.20;66.10;;;;;;5027167;28;20052;-64
2021/05/04 11:06:32;;;;;;;6.88;2.90;;;13.30;66.50;;;;;;5025572;28;20124;-63
2021/05/04 11:08:58;;;;;;;4.75;2.80;;;13.20;66.80;;;;;;5029509;28;20056;-63
2021/05/04 11:14:03;;;;;;;4.57;3.22;;;13.20;66.50;;;;;;5036803;28;20029;-63
2021/05/04 11:16:42;;;;;;;4.03;2.92;;;13.20;66.90;;;;;;5032134;28;20052;-63
2021/05/04 11:19:41;;;;;;;3.70;3.00;;;13.10;67.50;;;;;;5015968;28;20049;-63
2021/05/04 11:22:20;;;;;;;4.20;2.90;;;13.20;67.60;;;;;;5036336;28;20031;-61
2021/05/04 11:24:49;;;;;;;4.97;3.17;;;13.10;67.80;;;;;;5020809;28;20385;-61
2021/05/04 11:27:22;;;;;;;6.28;3.55;;;13.30;67.90;;;;;;5031715;28;20029;-61
2021/05/04 11:29:51;;;;;;;5.03;3.00;;;13.40;67.80;;;;;;5031084;28;20036;-61
2021/05/04 11:32:40;;;;;;;4.47;2.85;;;13.40;67.50;;;;;;5028756;28;20033;-63
2021/05/04 11:35:08;;;;;;;7.28;3.45;;;13.40;67.40;;;;;;5020523;28;20520;-62
2021/05/04 11:37:38;;;;;;;7.38;3.33;;;13.40;66.70;;;;;;5021790;28;20045;-61
2021/05/04 11:40:25;;;;;;;7.30;3.28;;;13.40;67.50;;;;;;5039404;28;20488;-64
2021/05/04 11:42:55;;;;;;;4.25;2.70;;;13.40;66.80;;;;;;5031775;28;20036;-63
2021/05/04 11:45:24;;;;;;;3.75;2.70;;;13.40;67.20;;;;;;5034611;28;20108;-64
2021/05/04 11:48:12;;;;;;;3.97;2.50;;;13.40;66.30;;;;;;5034357;28;20037;-63
2021/05/04 11:50:43;;;;;;;10.40;2.85;;;13.50;66.70;;;;;;5034641;28;20034;-62
2021/05/04 11:53:11;;;;;;;4.30;3.05;;;13.60;66.10;;;;;;5033834;28;20025;-63
2021/05/04 11:55:42;;;;;;;6.00;2.80;;;13.50;66.00;;;;;;5034273;28;20068;-63
2021/05/04 11:58:15;;;;;;;4.38;2.83;;;13.60;66.30;;;;;;5034970;28;20445;-63
2021/05/04 12:00:41;;;;;;;6.47;2.88;;;13.70;66.10;;;;;;5038553;28;20048;-63
2021/05/04 12:03:25;;;;;;;5.88;2.85;;;13.90;66.00;;;;;;5023397;28;20033;-63
2021/05/04 12:05:51;;;;;;;9.70;2.72;;;14.00;65.60;;;;;;5021510;28;20041;-63
2021/05/04 12:08:17;;;;;;;9.38;2.72;;;14.20;63.80;;;;;;5021476;28;20510;-63
2021/05/04 12:10:48;;;;;;;16.35;3.42;;;14.30;64.10;;;;;;5028379;28;20033;-63
2021/05/04 12:13:20;;;;;;;6.43;2.70;;;14.10;62.60;;;;;;5044170;28;20032;-63
2021/05/04 12:15:57;;;;;;;8.82;2.85;;;14.20;63.60;;;;;;5033924;28;20037;-65
2021/05/04 12:18:24;;;;;;;6.38;2.42;;;14.10;62.70;;;;;;5030649;28;20041;-64
2021/05/04 12:20:53;;;;;;;9.40;3.05;;;14.10;62.40;;;;;;5035540;28;20033;-64
2021/05/04 12:23:30;;;;;;;3.92;3.10;;;14.00;62.90;;;;;;5033810;28;20104;-63
2021/05/04 12:26:01;;;;;;;8.38;3.25;;;14.00;63.40;;;;;;5033785;28;20069;-64
2021/05/04 12:28:54;;;;;;;8.82;2.85;;;13.90;63.80;;;;;;5033770;28;20041;-64
2021/05/04 12:31:24;;;;;;;9.32;2.97;;;13.80;64.50;;;;;;5030952;28;20034;-62
2021/05/04 12:33:53;;;;;;;5.82;2.20;;;13.70;64.50;;;;;;5035952;28;20025;-63
2021/05/04 12:36:38;;;;;;;3.60;2.30;;;13.80;64.50;;;;;;5033522;28;20033;-63
2021/05/04 12:39:13;;;;;;;6.18;2.80;;;13.80;65.10;;;;;;5033340;28;20389;-63
2021/05/04 12:41:47;;;;;;;6.30;2.63;;;13.80;65.20;;;;;;5048217;28;20049;-64
2021/05/04 12:46:49;;;;;;;5.50;2.65;;;13.80;65.80;;;;;;5032403;28;19917;-63
2021/05/04 12:49:15;;;;;;;6.63;2.90;;;13.70;65.90;;;;;;5033325;28;20388;-64
2021/05/04 12:51:54;;;;;;;5.05;2.60;;;13.90;65.00;;;;;;5035979;28;20116;-64
2021/05/04 12:54:21;;;;;;;6.35;2.58;;;14.00;65.20;;;;;;5031704;28;20496;-64
2021/05/04 12:56:50;;;;;;;6.07;2.70;;;14.10;65.00;;;;;;5026160;28;20490;-62
2021/05/04 12:59:26;;;;;;;6.40;2.80;;;14.10;65.00;;;;;;5028303;28;20048;-64
2021/05/04 13:01:54;;;;;;;6.78;2.50;;;14.20;64.80;;;;;;5023656;28;20037;-62
2021/05/04 13:07:51;;;;;;;4.10;2.53;;;14.30;64.10;;;;;;5032172;28;20112;-62